CCA2804 ZGGG-ZBTJ
Flight info
| Callsign | CCA2804 |
|---|---|
| Flight time | 2h 32m |
| Altitude | 31100 |
| Route | MIKIP9 MIKIP A461 BUBDA W56 GUVRI W85 OMDEK OMDEK3H |
| Aircraft | B738/M-SDE2E3FGHIRWXY/LB1 |
Departure
| Time | 2026-04-28 13:55 |
|---|---|
| Airport | Guangzhou Baiyun International Airport (ZGGG) |
Arrival
| Time | 2026-04-28 16:27 |
|---|---|
| Airport | Tianjin Binhai International Airport (ZBTJ) |
| Time | Latitude | Longitude | Altitude | Speed | Heading |
|---|---|---|---|---|---|
| 2026-04-28 13:16 | 23.38597 | 113.29426 | 53 ft | 0 kts | 359° |
| 2026-04-28 13:38 | 23.38596 | 113.29426 | 53 ft | 1 kts | 359° |
| 2026-04-28 13:39 | 23.38581 | 113.29425 | 53 ft | 2 kts | 4° |
| 2026-04-28 13:39 | 23.38566 | 113.29424 | 53 ft | 2 kts | 2° |
| 2026-04-28 13:39 | 23.38551 | 113.29424 | 53 ft | 2 kts | 3° |
| 2026-04-28 13:39 | 23.38538 | 113.29423 | 53 ft | 0 kts | 2° |
| 2026-04-28 13:40 | 23.38527 | 113.29424 | 53 ft | 1 kts | 330° |
| 2026-04-28 13:40 | 23.38519 | 113.29434 | 53 ft | 1 kts | 272° |
| 2026-04-28 13:40 | 23.38520 | 113.29443 | 53 ft | 0 kts | 248° |
| 2026-04-28 13:40 | 23.38524 | 113.29450 | 53 ft | 1 kts | 244° |
| 2026-04-28 13:43 | 23.38522 | 113.29446 | 53 ft | 2 kts | 244° |
| 2026-04-28 13:43 | 23.38506 | 113.29409 | 53 ft | 8 kts | 245° |
| 2026-04-28 13:43 | 23.38475 | 113.29334 | 53 ft | 13 kts | 246° |
| 2026-04-28 13:43 | 23.38439 | 113.29246 | 53 ft | 12 kts | 245° |
| 2026-04-28 13:44 | 23.38404 | 113.29161 | 53 ft | 11 kts | 245° |
| 2026-04-28 13:44 | 23.38407 | 113.29076 | 53 ft | 11 kts | 284° |
| 2026-04-28 13:44 | 23.38425 | 113.28997 | 53 ft | 10 kts | 284° |
| 2026-04-28 13:44 | 23.38443 | 113.28922 | 53 ft | 9 kts | 282° |
| 2026-04-28 13:45 | 23.38465 | 113.28856 | 53 ft | 9 kts | 313° |
| 2026-04-28 13:45 | 23.38523 | 113.28855 | 53 ft | 8 kts | 14° |
| 2026-04-28 13:45 | 23.38579 | 113.28870 | 53 ft | 7 kts | 13° |
| 2026-04-28 13:45 | 23.38632 | 113.28885 | 53 ft | 8 kts | 14° |
| 2026-04-28 13:46 | 23.38705 | 113.28905 | 53 ft | 12 kts | 14° |
| 2026-04-28 13:46 | 23.38790 | 113.28928 | 53 ft | 12 kts | 14° |
| 2026-04-28 13:46 | 23.38873 | 113.28950 | 53 ft | 11 kts | 14° |
| 2026-04-28 13:46 | 23.38950 | 113.28971 | 53 ft | 11 kts | 13° |
| 2026-04-28 13:47 | 23.39025 | 113.28991 | 53 ft | 10 kts | 13° |
| 2026-04-28 13:47 | 23.39095 | 113.29009 | 53 ft | 10 kts | 14° |
| 2026-04-28 13:47 | 23.39161 | 113.29025 | 53 ft | 9 kts | 358° |
| 2026-04-28 13:47 | 23.39204 | 113.28981 | 53 ft | 8 kts | 306° |
| 2026-04-28 13:48 | 23.39256 | 113.28964 | 53 ft | 8 kts | 9° |
| 2026-04-28 13:48 | 23.39323 | 113.28982 | 53 ft | 12 kts | 15° |
| 2026-04-28 13:48 | 23.39430 | 113.29010 | 53 ft | 19 kts | 13° |
| 2026-04-28 13:48 | 23.39580 | 113.29050 | 53 ft | 25 kts | 14° |
| 2026-04-28 13:49 | 23.39757 | 113.29098 | 53 ft | 25 kts | 13° |
| 2026-04-28 13:49 | 23.39927 | 113.29142 | 53 ft | 24 kts | 14° |
| 2026-04-28 13:49 | 23.40093 | 113.29188 | 53 ft | 24 kts | 14° |
| 2026-04-28 13:49 | 23.40253 | 113.29230 | 53 ft | 23 kts | 14° |
| 2026-04-28 13:50 | 23.40406 | 113.29273 | 54 ft | 22 kts | 16° |
| 2026-04-28 13:50 | 23.40554 | 113.29312 | 54 ft | 21 kts | 13° |
| 2026-04-28 13:50 | 23.40695 | 113.29349 | 54 ft | 20 kts | 13° |
| 2026-04-28 13:50 | 23.40774 | 113.29366 | 53 ft | 8 kts | 347° |
| 2026-04-28 13:51 | 23.40809 | 113.29321 | 54 ft | 6 kts | 286° |
| 2026-04-28 13:51 | 23.40813 | 113.29308 | 54 ft | 0 kts | 285° |
| 2026-04-28 13:52 | 23.40814 | 113.29302 | 54 ft | 2 kts | 284° |
| 2026-04-28 13:53 | 23.40824 | 113.29261 | 54 ft | 8 kts | 284° |
| 2026-04-28 13:53 | 23.40827 | 113.29204 | 54 ft | 7 kts | 229° |
| 2026-04-28 13:53 | 23.40780 | 113.29182 | 54 ft | 6 kts | 195° |
| 2026-04-28 13:53 | 23.40765 | 113.29178 | 54 ft | 0 kts | 195° |
| 2026-04-28 13:54 | 23.40763 | 113.29177 | 54 ft | 2 kts | 195° |
| 2026-04-28 13:54 | 23.40604 | 113.29134 | 54 ft | 59 kts | 193° |
| 2026-04-28 13:54 | 23.39964 | 113.28961 | 54 ft | 127 kts | 194° |
| 2026-04-28 13:54 | 23.38924 | 113.28677 | 198 ft | 166 kts | 192° |
| 2026-04-28 13:55 | 23.37840 | 113.28378 | 928 ft | 164 kts | 193° |
| 2026-04-28 13:55 | 23.36788 | 113.28058 | 1793 ft | 153 kts | 197° |
| 2026-04-28 13:55 | 23.35819 | 113.27603 | 2313 ft | 156 kts | 204° |
| 2026-04-28 13:55 | 23.34870 | 113.26998 | 2808 ft | 159 kts | 211° |
| 2026-04-28 13:56 | 23.34004 | 113.26277 | 3378 ft | 158 kts | 217° |
| 2026-04-28 13:56 | 23.33183 | 113.25414 | 3717 ft | 172 kts | 224° |
| 2026-04-28 13:56 | 23.32407 | 113.24339 | 4084 ft | 185 kts | 232° |
| 2026-04-28 13:56 | 23.31732 | 113.23104 | 4433 ft | 198 kts | 237° |
| 2026-04-28 13:57 | 23.30776 | 113.21980 | 4642 ft | 216 kts | 207° |
| 2026-04-28 13:57 | 23.29240 | 113.21620 | 5023 ft | 232 kts | 184° |
| 2026-04-28 13:57 | 23.27624 | 113.21540 | 5616 ft | 237 kts | 188° |
| 2026-04-28 13:57 | 23.25986 | 113.21299 | 6261 ft | 239 kts | 193° |
| 2026-04-28 13:58 | 23.24343 | 113.20945 | 6885 ft | 243 kts | 195° |
| 2026-04-28 13:58 | 23.22696 | 113.20563 | 7508 ft | 247 kts | 195° |
| 2026-04-28 13:58 | 23.20989 | 113.20173 | 8179 ft | 250 kts | 195° |
| 2026-04-28 13:58 | 23.19293 | 113.19797 | 8832 ft | 254 kts | 194° |
| 2026-04-28 13:59 | 23.17536 | 113.19414 | 9464 ft | 258 kts | 195° |
| 2026-04-28 13:59 | 23.15805 | 113.18887 | 10111 ft | 259 kts | 207° |
| 2026-04-28 13:59 | 23.14365 | 113.17786 | 10772 ft | 257 kts | 231° |
| 2026-04-28 13:59 | 23.13457 | 113.16142 | 11446 ft | 257 kts | 250° |
| 2026-04-28 14:00 | 23.12992 | 113.14136 | 12212 ft | 259 kts | 264° |
| 2026-04-28 14:00 | 23.13084 | 113.12215 | 12903 ft | 262 kts | 279° |
| 2026-04-28 14:00 | 23.13773 | 113.10375 | 13526 ft | 272 kts | 302° |
| 2026-04-28 14:00 | 23.15129 | 113.08916 | 14209 ft | 281 kts | 320° |
| 2026-04-28 14:01 | 23.16915 | 113.07907 | 14643 ft | 301 kts | 335° |
| 2026-04-28 14:01 | 23.19057 | 113.07408 | 15029 ft | 324 kts | 352° |
| 2026-04-28 14:01 | 23.21343 | 113.07523 | 15386 ft | 343 kts | 3° |
| 2026-04-28 14:01 | 23.23773 | 113.07863 | 15720 ft | 357 kts | 1° |
| 2026-04-28 14:02 | 23.26331 | 113.08054 | 16029 ft | 371 kts | 358° |
| 2026-04-28 14:02 | 23.28966 | 113.08109 | 16313 ft | 385 kts | 356° |
| 2026-04-28 14:02 | 23.31669 | 113.08095 | 16640 ft | 397 kts | 355° |
| 2026-04-28 14:02 | 23.34464 | 113.08058 | 17232 ft | 401 kts | 355° |
| 2026-04-28 14:03 | 23.37285 | 113.08021 | 17770 ft | 406 kts | 355° |
| 2026-04-28 14:03 | 23.40113 | 113.07996 | 18354 ft | 410 kts | 355° |
| 2026-04-28 14:03 | 23.42987 | 113.07981 | 18951 ft | 412 kts | 355° |
| 2026-04-28 14:03 | 23.45843 | 113.07970 | 19459 ft | 417 kts | 355° |
| 2026-04-28 14:04 | 23.48766 | 113.07962 | 20039 ft | 420 kts | 355° |
| 2026-04-28 14:04 | 23.51710 | 113.07955 | 20596 ft | 422 kts | 355° |
| 2026-04-28 14:04 | 23.54666 | 113.07941 | 21116 ft | 426 kts | 355° |
| 2026-04-28 14:04 | 23.57628 | 113.07920 | 21653 ft | 428 kts | 355° |
| 2026-04-28 14:05 | 23.60605 | 113.07895 | 22150 ft | 431 kts | 355° |
| 2026-04-28 14:05 | 23.63622 | 113.07867 | 22640 ft | 434 kts | 355° |
| 2026-04-28 14:05 | 23.66672 | 113.07906 | 23125 ft | 439 kts | 359° |
| 2026-04-28 14:05 | 23.69728 | 113.08252 | 23590 ft | 446 kts | 6° |
| 2026-04-28 14:06 | 23.72763 | 113.09111 | 24031 ft | 453 kts | 15° |
| 2026-04-28 14:06 | 23.75685 | 113.10352 | 24513 ft | 458 kts | 20° |
| 2026-04-28 14:06 | 23.78618 | 113.11817 | 24923 ft | 463 kts | 22° |
| 2026-04-28 14:06 | 23.81490 | 113.13361 | 25369 ft | 466 kts | 24° |
| 2026-04-28 14:07 | 23.84416 | 113.14973 | 25795 ft | 470 kts | 24° |
| 2026-04-28 14:07 | 23.87337 | 113.16587 | 26264 ft | 472 kts | 24° |
| 2026-04-28 14:07 | 23.90270 | 113.18197 | 26691 ft | 474 kts | 24° |
| 2026-04-28 14:07 | 23.93231 | 113.19810 | 27157 ft | 476 kts | 23° |
| 2026-04-28 14:08 | 23.96207 | 113.21420 | 27570 ft | 478 kts | 24° |
| 2026-04-28 14:08 | 23.99223 | 113.23038 | 27942 ft | 482 kts | 23° |
| 2026-04-28 14:08 | 24.02250 | 113.24654 | 28304 ft | 485 kts | 23° |
| 2026-04-28 14:08 | 24.05257 | 113.26253 | 28668 ft | 488 kts | 23° |
| 2026-04-28 14:09 | 24.08351 | 113.27896 | 28904 ft | 494 kts | 23° |
| 2026-04-28 14:09 | 24.11441 | 113.29533 | 29232 ft | 498 kts | 23° |
| 2026-04-28 14:09 | 24.14588 | 113.31198 | 29553 ft | 501 kts | 23° |
| 2026-04-28 14:09 | 24.17751 | 113.32873 | 29895 ft | 504 kts | 23° |
| 2026-04-28 14:10 | 24.20916 | 113.34551 | 30335 ft | 504 kts | 23° |
| 2026-04-28 14:10 | 24.24073 | 113.36224 | 30725 ft | 505 kts | 23° |
| 2026-04-28 14:10 | 24.27239 | 113.37904 | 30962 ft | 503 kts | 23° |
| 2026-04-28 14:10 | 24.30363 | 113.39535 | 30975 ft | 489 kts | 21° |
| 2026-04-28 14:11 | 24.33438 | 113.40962 | 30985 ft | 472 kts | 17° |
| 2026-04-28 14:11 | 24.36555 | 113.41904 | 30995 ft | 459 kts | 6° |
| 2026-04-28 14:11 | 24.42883 | 113.42507 | 31009 ft | 461 kts | 358° |
| 2026-04-28 14:12 | 24.49310 | 113.42634 | 31021 ft | 460 kts | 356° |
| 2026-04-28 14:12 | 24.55745 | 113.42712 | 31012 ft | 462 kts | 356° |
| 2026-04-28 14:13 | 24.62175 | 113.42830 | 31011 ft | 462 kts | 357° |
| 2026-04-28 14:13 | 24.68613 | 113.42977 | 30999 ft | 464 kts | 357° |
| 2026-04-28 14:14 | 24.75073 | 113.43148 | 30989 ft | 462 kts | 357° |
| 2026-04-28 14:14 | 24.81511 | 113.43332 | 30994 ft | 464 kts | 358° |
| 2026-04-28 14:15 | 24.88011 | 113.43516 | 30985 ft | 465 kts | 358° |
| 2026-04-28 14:15 | 24.94496 | 113.43700 | 30994 ft | 465 kts | 358° |
| 2026-04-28 14:16 | 25.00994 | 113.43885 | 30989 ft | 464 kts | 358° |
| 2026-04-28 14:16 | 25.07481 | 113.44069 | 31011 ft | 467 kts | 358° |
| 2026-04-28 14:17 | 25.13978 | 113.44255 | 31017 ft | 467 kts | 358° |
| 2026-04-28 14:17 | 25.20485 | 113.44442 | 31026 ft | 468 kts | 358° |
| 2026-04-28 14:18 | 25.26966 | 113.44626 | 31040 ft | 469 kts | 358° |
| 2026-04-28 14:18 | 25.33513 | 113.44810 | 31032 ft | 469 kts | 358° |
| 2026-04-28 14:19 | 25.40023 | 113.44997 | 31040 ft | 468 kts | 358° |
| 2026-04-28 14:19 | 25.46564 | 113.45187 | 31045 ft | 472 kts | 358° |
| 2026-04-28 14:20 | 25.53120 | 113.45377 | 31059 ft | 470 kts | 358° |
| 2026-04-28 14:20 | 25.59660 | 113.45568 | 31059 ft | 470 kts | 358° |
| 2026-04-28 14:21 | 25.66204 | 113.45757 | 31057 ft | 472 kts | 358° |
| 2026-04-28 14:21 | 25.72781 | 113.45946 | 31072 ft | 474 kts | 358° |
| 2026-04-28 14:22 | 25.79389 | 113.46136 | 31067 ft | 475 kts | 358° |
| 2026-04-28 14:22 | 25.86008 | 113.46330 | 31051 ft | 474 kts | 359° |
| 2026-04-28 14:23 | 25.92641 | 113.46343 | 31056 ft | 473 kts | 355° |
| 2026-04-28 14:23 | 25.99213 | 113.46064 | 31053 ft | 474 kts | 354° |
| 2026-04-28 14:24 | 26.05819 | 113.45712 | 31066 ft | 475 kts | 354° |
| 2026-04-28 14:24 | 26.12438 | 113.45402 | 31072 ft | 476 kts | 354° |
| 2026-04-28 14:25 | 26.19038 | 113.45129 | 31075 ft | 475 kts | 354° |
| 2026-04-28 14:25 | 26.25657 | 113.44872 | 31068 ft | 474 kts | 355° |
| 2026-04-28 14:26 | 26.32257 | 113.44624 | 31076 ft | 477 kts | 355° |
| 2026-04-28 14:26 | 26.38864 | 113.44371 | 31058 ft | 473 kts | 355° |
| 2026-04-28 14:27 | 26.45507 | 113.44110 | 31060 ft | 475 kts | 355° |
| 2026-04-28 14:27 | 26.52122 | 113.43849 | 31056 ft | 475 kts | 354° |
| 2026-04-28 14:28 | 26.58740 | 113.43595 | 31055 ft | 477 kts | 355° |
| 2026-04-28 14:28 | 26.65374 | 113.43344 | 31061 ft | 479 kts | 354° |
| 2026-04-28 14:29 | 26.72017 | 113.43086 | 31064 ft | 476 kts | 354° |
| 2026-04-28 14:29 | 26.78688 | 113.42823 | 31073 ft | 478 kts | 355° |
| 2026-04-28 14:30 | 26.85329 | 113.42568 | 31062 ft | 479 kts | 355° |
| 2026-04-28 14:30 | 26.91981 | 113.42320 | 31059 ft | 478 kts | 355° |
| 2026-04-28 14:31 | 26.98661 | 113.42065 | 31063 ft | 478 kts | 354° |
| 2026-04-28 14:31 | 27.05289 | 113.41811 | 31060 ft | 476 kts | 354° |
| 2026-04-28 14:32 | 27.11894 | 113.41557 | 31060 ft | 476 kts | 354° |
| 2026-04-28 14:32 | 27.18578 | 113.41297 | 31063 ft | 479 kts | 354° |
| 2026-04-28 14:33 | 27.25185 | 113.41043 | 31063 ft | 475 kts | 354° |
| 2026-04-28 14:33 | 27.31827 | 113.40785 | 31065 ft | 477 kts | 354° |
| 2026-04-28 14:34 | 27.41808 | 113.40736 | 31056 ft | 478 kts | 358° |
| 2026-04-28 14:35 | 27.48496 | 113.40932 | 31070 ft | 480 kts | 358° |
| 2026-04-28 14:35 | 27.55186 | 113.41124 | 31067 ft | 480 kts | 358° |
| 2026-04-28 14:36 | 27.61868 | 113.41289 | 31082 ft | 481 kts | 358° |
| 2026-04-28 14:36 | 27.68556 | 113.41493 | 31070 ft | 480 kts | 360° |
| 2026-04-28 14:37 | 27.75217 | 113.42042 | 31080 ft | 480 kts | 2° |
| 2026-04-28 14:37 | 27.81832 | 113.42713 | 31073 ft | 481 kts | 2° |
| 2026-04-28 14:38 | 27.88525 | 113.43378 | 31080 ft | 479 kts | 1° |
| 2026-04-28 14:38 | 27.95183 | 113.44001 | 31075 ft | 480 kts | 1° |
| 2026-04-28 14:39 | 28.01822 | 113.44597 | 31086 ft | 480 kts | 1° |
| 2026-04-28 14:39 | 28.08474 | 113.45182 | 31090 ft | 480 kts | 1° |
| 2026-04-28 14:40 | 28.15160 | 113.45721 | 31094 ft | 481 kts | 0° |
| 2026-04-28 14:40 | 28.21840 | 113.46186 | 31101 ft | 480 kts | 359° |
| 2026-04-28 14:41 | 28.28508 | 113.46639 | 31102 ft | 480 kts | 360° |
| 2026-04-28 14:41 | 28.35164 | 113.47106 | 31101 ft | 479 kts | 360° |
| 2026-04-28 14:42 | 28.41881 | 113.47580 | 31113 ft | 481 kts | 359° |
| 2026-04-28 14:42 | 28.48530 | 113.48058 | 31120 ft | 480 kts | 359° |
| 2026-04-28 14:43 | 28.55206 | 113.48535 | 31119 ft | 480 kts | 359° |
| 2026-04-28 14:43 | 28.61844 | 113.49007 | 31132 ft | 480 kts | 359° |
| 2026-04-28 14:44 | 28.68555 | 113.49485 | 31142 ft | 481 kts | 359° |
| 2026-04-28 14:44 | 28.75217 | 113.49963 | 31147 ft | 481 kts | 359° |
| 2026-04-28 14:45 | 28.81926 | 113.50443 | 31142 ft | 480 kts | 359° |
| 2026-04-28 14:45 | 28.88591 | 113.50920 | 31145 ft | 482 kts | 359° |
| 2026-04-28 14:46 | 28.95296 | 113.51403 | 31148 ft | 479 kts | 359° |
| 2026-04-28 14:46 | 29.01979 | 113.51884 | 31156 ft | 480 kts | 359° |
| 2026-04-28 14:47 | 29.08621 | 113.52362 | 31158 ft | 480 kts | 359° |
| 2026-04-28 14:47 | 29.15306 | 113.52849 | 31166 ft | 479 kts | 359° |
| 2026-04-28 14:48 | 29.21958 | 113.53332 | 31173 ft | 479 kts | 359° |
| 2026-04-28 14:48 | 29.28605 | 113.53808 | 31173 ft | 480 kts | 359° |
| 2026-04-28 14:49 | 29.35280 | 113.54341 | 31188 ft | 481 kts | 359° |
| 2026-04-28 14:49 | 29.41976 | 113.54932 | 31196 ft | 479 kts | 359° |
| 2026-04-28 14:50 | 29.48638 | 113.55524 | 31196 ft | 481 kts | 360° |
| 2026-04-28 14:50 | 29.55304 | 113.56112 | 31200 ft | 480 kts | 359° |
| 2026-04-28 14:51 | 29.61973 | 113.56700 | 31212 ft | 480 kts | 359° |
| 2026-04-28 14:51 | 29.68637 | 113.57283 | 31213 ft | 481 kts | 359° |
| 2026-04-28 14:52 | 29.75306 | 113.57863 | 31222 ft | 479 kts | 359° |
| 2026-04-28 14:52 | 29.81921 | 113.58440 | 31229 ft | 481 kts | 359° |
| 2026-04-28 14:53 | 29.88612 | 113.59026 | 31234 ft | 479 kts | 359° |
| 2026-04-28 14:53 | 29.95254 | 113.60181 | 31233 ft | 488 kts | 10° |
| 2026-04-28 14:54 | 30.01679 | 113.62759 | 31240 ft | 490 kts | 18° |
| 2026-04-28 14:54 | 30.07834 | 113.65852 | 31239 ft | 492 kts | 21° |
| 2026-04-28 14:55 | 30.14084 | 113.69101 | 31239 ft | 491 kts | 21° |
| 2026-04-28 14:55 | 30.20346 | 113.72331 | 31242 ft | 492 kts | 21° |
| 2026-04-28 14:56 | 30.26586 | 113.75509 | 31242 ft | 491 kts | 20° |
| 2026-04-28 14:56 | 30.32861 | 113.78678 | 31242 ft | 492 kts | 20° |
| 2026-04-28 14:57 | 30.39153 | 113.81847 | 31243 ft | 493 kts | 20° |
| 2026-04-28 14:57 | 30.45437 | 113.85004 | 31241 ft | 494 kts | 19° |
| 2026-04-28 14:58 | 30.51765 | 113.88184 | 31240 ft | 495 kts | 20° |
| 2026-04-28 14:58 | 30.58090 | 113.91367 | 31249 ft | 494 kts | 20° |
| 2026-04-28 14:59 | 30.64379 | 113.94531 | 31243 ft | 495 kts | 20° |
| 2026-04-28 14:59 | 30.70745 | 113.97648 | 31247 ft | 493 kts | 19° |
| 2026-04-28 15:00 | 30.76981 | 114.00935 | 31249 ft | 495 kts | 21° |
| 2026-04-28 15:00 | 30.83201 | 114.04409 | 31249 ft | 496 kts | 21° |
| 2026-04-28 15:01 | 30.89417 | 114.07850 | 31249 ft | 495 kts | 21° |
| 2026-04-28 15:01 | 30.95657 | 114.11267 | 31250 ft | 498 kts | 21° |
| 2026-04-28 15:02 | 31.01960 | 114.14707 | 31257 ft | 497 kts | 21° |
| 2026-04-28 15:02 | 31.08229 | 114.18115 | 31256 ft | 498 kts | 21° |
| 2026-04-28 15:03 | 31.14495 | 114.21518 | 31260 ft | 498 kts | 21° |
| 2026-04-28 15:03 | 31.20780 | 114.24940 | 31258 ft | 500 kts | 21° |
| 2026-04-28 15:04 | 31.27055 | 114.28374 | 31264 ft | 497 kts | 21° |
| 2026-04-28 15:04 | 31.33382 | 114.31654 | 31273 ft | 497 kts | 16° |
| 2026-04-28 15:05 | 31.40008 | 114.33455 | 31272 ft | 485 kts | 359° |
| 2026-04-28 15:05 | 31.46685 | 114.33849 | 31279 ft | 476 kts | 354° |
| 2026-04-28 15:06 | 31.53322 | 114.33910 | 31280 ft | 479 kts | 353° |
| 2026-04-28 15:06 | 31.59965 | 114.33975 | 31279 ft | 475 kts | 353° |
| 2026-04-28 15:07 | 31.66630 | 114.34100 | 31285 ft | 477 kts | 354° |
| 2026-04-28 15:07 | 31.73226 | 114.34270 | 31286 ft | 477 kts | 354° |
| 2026-04-28 15:08 | 31.79849 | 114.34462 | 31290 ft | 475 kts | 354° |
| 2026-04-28 15:08 | 31.86514 | 114.34663 | 31298 ft | 478 kts | 354° |
| 2026-04-28 15:09 | 31.93125 | 114.34866 | 31298 ft | 476 kts | 354° |
| 2026-04-28 15:09 | 31.99756 | 114.35068 | 31308 ft | 477 kts | 354° |
| 2026-04-28 15:10 | 32.06363 | 114.35269 | 31306 ft | 476 kts | 354° |
| 2026-04-28 15:10 | 32.13012 | 114.35471 | 31305 ft | 475 kts | 354° |
| 2026-04-28 15:11 | 32.19661 | 114.35672 | 31308 ft | 477 kts | 354° |
| 2026-04-28 15:11 | 32.26298 | 114.35873 | 31319 ft | 479 kts | 354° |
| 2026-04-28 15:12 | 32.32927 | 114.36322 | 31328 ft | 480 kts | 357° |
| 2026-04-28 15:12 | 32.39645 | 114.36980 | 31327 ft | 484 kts | 357° |
| 2026-04-28 15:13 | 32.46327 | 114.37663 | 31325 ft | 480 kts | 357° |
| 2026-04-28 15:13 | 32.52944 | 114.38316 | 31327 ft | 478 kts | 357° |
| 2026-04-28 15:14 | 32.59609 | 114.38939 | 31325 ft | 481 kts | 356° |
| 2026-04-28 15:14 | 32.66324 | 114.39555 | 31325 ft | 481 kts | 356° |
| 2026-04-28 15:15 | 32.72928 | 114.40175 | 31331 ft | 477 kts | 356° |
| 2026-04-28 15:15 | 32.79610 | 114.40796 | 31333 ft | 482 kts | 356° |
| 2026-04-28 15:16 | 32.86285 | 114.41419 | 31328 ft | 479 kts | 356° |
| 2026-04-28 15:16 | 32.92932 | 114.42043 | 31337 ft | 479 kts | 356° |
| 2026-04-28 15:17 | 32.99577 | 114.42667 | 31332 ft | 481 kts | 356° |
| 2026-04-28 15:17 | 33.06245 | 114.43291 | 31335 ft | 479 kts | 356° |
| 2026-04-28 15:18 | 33.19425 | 114.44532 | 31334 ft | 479 kts | 356° |
| 2026-04-28 15:19 | 33.26091 | 114.45158 | 31337 ft | 480 kts | 356° |
| 2026-04-28 15:19 | 33.32744 | 114.45786 | 31335 ft | 480 kts | 356° |
| 2026-04-28 15:20 | 33.39408 | 114.46412 | 31336 ft | 482 kts | 356° |
| 2026-04-28 15:20 | 33.46037 | 114.47037 | 31336 ft | 478 kts | 356° |
| 2026-04-28 15:21 | 33.52705 | 114.47668 | 31336 ft | 479 kts | 356° |
| 2026-04-28 15:21 | 33.59308 | 114.48289 | 31336 ft | 478 kts | 355° |
| 2026-04-28 15:22 | 33.65972 | 114.48916 | 31336 ft | 480 kts | 355° |
| 2026-04-28 15:22 | 33.72635 | 114.49540 | 31336 ft | 479 kts | 355° |
| 2026-04-28 15:23 | 33.79270 | 114.50159 | 31334 ft | 479 kts | 355° |
| 2026-04-28 15:23 | 33.85914 | 114.50781 | 31335 ft | 478 kts | 355° |
| 2026-04-28 15:24 | 33.92533 | 114.51402 | 31335 ft | 479 kts | 355° |
| 2026-04-28 15:24 | 33.99150 | 114.52031 | 31335 ft | 477 kts | 355° |
| 2026-04-28 15:25 | 34.05796 | 114.52654 | 31335 ft | 481 kts | 355° |
| 2026-04-28 15:25 | 34.12466 | 114.53288 | 31335 ft | 477 kts | 355° |
| 2026-04-28 15:26 | 34.19127 | 114.53921 | 31334 ft | 481 kts | 355° |
| 2026-04-28 15:26 | 34.25763 | 114.54548 | 31333 ft | 480 kts | 355° |
| 2026-04-28 15:27 | 34.32398 | 114.55185 | 31333 ft | 476 kts | 354° |
| 2026-04-28 15:27 | 34.39057 | 114.55814 | 31334 ft | 481 kts | 354° |
| 2026-04-28 15:28 | 34.45703 | 114.56452 | 31336 ft | 479 kts | 354° |
| 2026-04-28 15:28 | 34.52319 | 114.57081 | 31337 ft | 477 kts | 354° |
| 2026-04-28 15:29 | 34.58924 | 114.57703 | 31332 ft | 478 kts | 354° |
| 2026-04-28 15:29 | 34.65566 | 114.58330 | 31334 ft | 478 kts | 354° |
| 2026-04-28 15:30 | 34.72207 | 114.58961 | 31334 ft | 480 kts | 354° |
| 2026-04-28 15:30 | 34.78878 | 114.59597 | 31330 ft | 478 kts | 354° |
| 2026-04-28 15:31 | 34.85475 | 114.60229 | 31329 ft | 477 kts | 353° |
| 2026-04-28 15:31 | 34.92107 | 114.60863 | 31329 ft | 479 kts | 353° |
| 2026-04-28 15:32 | 34.98775 | 114.61497 | 31331 ft | 479 kts | 353° |
| 2026-04-28 15:32 | 35.05369 | 114.62140 | 31329 ft | 476 kts | 353° |
| 2026-04-28 15:33 | 35.11989 | 114.62772 | 31331 ft | 479 kts | 353° |
| 2026-04-28 15:33 | 35.18667 | 114.63413 | 31331 ft | 477 kts | 353° |
| 2026-04-28 15:34 | 35.25217 | 114.64050 | 31331 ft | 475 kts | 353° |
| 2026-04-28 15:34 | 35.31821 | 114.64686 | 31334 ft | 474 kts | 353° |
| 2026-04-28 15:35 | 35.38428 | 114.65319 | 31336 ft | 480 kts | 353° |
| 2026-04-28 15:35 | 35.48361 | 114.66280 | 31340 ft | 480 kts | 353° |
| 2026-04-28 15:36 | 35.54990 | 114.66931 | 31340 ft | 476 kts | 353° |
| 2026-04-28 15:36 | 35.61599 | 114.67570 | 31340 ft | 482 kts | 353° |
| 2026-04-28 15:37 | 35.68262 | 114.68224 | 31337 ft | 474 kts | 353° |
| 2026-04-28 15:37 | 35.74834 | 114.68874 | 31336 ft | 476 kts | 353° |
| 2026-04-28 15:38 | 35.81445 | 114.69508 | 31340 ft | 479 kts | 353° |
| 2026-04-28 15:38 | 35.88061 | 114.70155 | 31354 ft | 477 kts | 353° |
| 2026-04-28 15:39 | 35.94696 | 114.70815 | 31354 ft | 475 kts | 353° |
| 2026-04-28 15:39 | 36.01235 | 114.71458 | 31357 ft | 478 kts | 353° |
| 2026-04-28 15:40 | 36.07870 | 114.72104 | 31358 ft | 474 kts | 352° |
| 2026-04-28 15:40 | 36.14431 | 114.72753 | 31358 ft | 475 kts | 352° |
| 2026-04-28 15:41 | 36.21027 | 114.73395 | 31349 ft | 477 kts | 352° |
| 2026-04-28 15:41 | 36.27637 | 114.74045 | 31343 ft | 472 kts | 352° |
| 2026-04-28 15:42 | 36.34191 | 114.74782 | 31349 ft | 479 kts | 355° |
| 2026-04-28 15:42 | 36.37538 | 114.75539 | 31344 ft | 492 kts | 3° |
| 2026-04-28 15:42 | 36.40813 | 114.76808 | 31351 ft | 503 kts | 10° |
| 2026-04-28 15:43 | 36.47329 | 114.80261 | 31350 ft | 511 kts | 15° |
| 2026-04-28 15:43 | 36.53705 | 114.84100 | 31347 ft | 512 kts | 17° |
| 2026-04-28 15:44 | 36.60104 | 114.87985 | 31349 ft | 511 kts | 16° |
| 2026-04-28 15:44 | 36.66474 | 114.91797 | 31351 ft | 508 kts | 15° |
| 2026-04-28 15:45 | 36.72835 | 114.95542 | 31346 ft | 504 kts | 15° |
| 2026-04-28 15:45 | 36.79180 | 114.99248 | 31355 ft | 510 kts | 14° |
| 2026-04-28 15:46 | 36.85617 | 115.03003 | 31354 ft | 504 kts | 14° |
| 2026-04-28 15:46 | 36.91922 | 115.06698 | 31354 ft | 505 kts | 14° |
| 2026-04-28 15:47 | 36.98324 | 115.10438 | 31355 ft | 507 kts | 15° |
| 2026-04-28 15:47 | 37.04687 | 115.14180 | 31348 ft | 505 kts | 14° |
| 2026-04-28 15:48 | 37.11043 | 115.17925 | 31351 ft | 504 kts | 14° |
| 2026-04-28 15:48 | 37.17397 | 115.21671 | 31348 ft | 508 kts | 14° |
| 2026-04-28 15:49 | 37.23788 | 115.25442 | 31338 ft | 507 kts | 14° |
| 2026-04-28 15:49 | 37.30157 | 115.29220 | 31335 ft | 507 kts | 13° |
| 2026-04-28 15:50 | 37.36516 | 115.32996 | 31334 ft | 507 kts | 14° |
| 2026-04-28 15:50 | 37.42896 | 115.36785 | 31334 ft | 506 kts | 13° |
| 2026-04-28 15:51 | 37.49230 | 115.40558 | 31333 ft | 505 kts | 13° |
| 2026-04-28 15:51 | 37.55577 | 115.44342 | 31334 ft | 507 kts | 13° |
| 2026-04-28 15:52 | 37.61906 | 115.48124 | 31331 ft | 506 kts | 13° |
| 2026-04-28 15:52 | 37.68259 | 115.51923 | 31330 ft | 509 kts | 13° |
| 2026-04-28 15:53 | 37.74667 | 115.55742 | 31332 ft | 501 kts | 11° |
| 2026-04-28 15:53 | 37.81116 | 115.58624 | 31111 ft | 487 kts | 359° |
| 2026-04-28 15:54 | 37.84415 | 115.59429 | 30854 ft | 475 kts | 353° |
| 2026-04-28 15:54 | 37.87651 | 115.59814 | 30592 ft | 460 kts | 347° |
| 2026-04-28 15:54 | 37.90747 | 115.59800 | 30338 ft | 439 kts | 341° |
| 2026-04-28 15:54 | 37.93731 | 115.59430 | 30082 ft | 424 kts | 336° |
| 2026-04-28 15:55 | 37.96613 | 115.58864 | 29831 ft | 421 kts | 335° |
| 2026-04-28 15:55 | 37.99517 | 115.58257 | 29582 ft | 424 kts | 336° |
| 2026-04-28 15:55 | 38.02439 | 115.57708 | 29340 ft | 426 kts | 338° |
| 2026-04-28 15:55 | 38.05403 | 115.57257 | 29124 ft | 427 kts | 339° |
| 2026-04-28 15:56 | 38.08339 | 115.56898 | 28937 ft | 429 kts | 341° |
| 2026-04-28 15:56 | 38.11333 | 115.56634 | 28732 ft | 430 kts | 344° |
| 2026-04-28 15:56 | 38.14332 | 115.56434 | 28509 ft | 430 kts | 344° |
| 2026-04-28 15:56 | 38.17340 | 115.56231 | 28310 ft | 434 kts | 345° |
| 2026-04-28 15:57 | 38.20375 | 115.56017 | 28053 ft | 438 kts | 346° |
| 2026-04-28 15:57 | 38.23414 | 115.55911 | 27724 ft | 441 kts | 350° |
| 2026-04-28 15:57 | 38.26480 | 115.56242 | 27404 ft | 448 kts | 359° |
| 2026-04-28 15:57 | 38.29527 | 115.57186 | 27073 ft | 454 kts | 9° |
| 2026-04-28 15:58 | 38.32482 | 115.58639 | 26766 ft | 456 kts | 15° |
| 2026-04-28 15:58 | 38.35339 | 115.60345 | 26456 ft | 455 kts | 18° |
| 2026-04-28 15:58 | 38.38152 | 115.62165 | 26108 ft | 453 kts | 20° |
| 2026-04-28 15:58 | 38.40932 | 115.64012 | 25804 ft | 450 kts | 21° |
| 2026-04-28 15:59 | 38.43674 | 115.65842 | 25488 ft | 440 kts | 22° |
| 2026-04-28 15:59 | 38.46285 | 115.67851 | 25147 ft | 434 kts | 30° |
| 2026-04-28 15:59 | 38.48556 | 115.70290 | 24827 ft | 431 kts | 39° |
| 2026-04-28 15:59 | 38.50544 | 115.73130 | 24524 ft | 425 kts | 46° |
| 2026-04-28 16:00 | 38.52258 | 115.76123 | 24194 ft | 418 kts | 52° |
| 2026-04-28 16:00 | 38.53747 | 115.79292 | 23851 ft | 411 kts | 56° |
| 2026-04-28 16:00 | 38.55073 | 115.82494 | 23467 ft | 403 kts | 58° |
| 2026-04-28 16:00 | 38.56310 | 115.85651 | 23107 ft | 395 kts | 59° |
| 2026-04-28 16:01 | 38.57508 | 115.88760 | 22715 ft | 386 kts | 59° |
| 2026-04-28 16:01 | 38.58679 | 115.91798 | 22330 ft | 379 kts | 59° |
| 2026-04-28 16:01 | 38.59835 | 115.94776 | 21963 ft | 371 kts | 59° |
| 2026-04-28 16:01 | 38.60972 | 115.97675 | 21584 ft | 365 kts | 59° |
| 2026-04-28 16:02 | 38.62111 | 116.00555 | 21210 ft | 361 kts | 59° |
| 2026-04-28 16:02 | 38.63232 | 116.03371 | 20806 ft | 358 kts | 59° |
| 2026-04-28 16:02 | 38.64292 | 116.06262 | 20299 ft | 357 kts | 64° |
| 2026-04-28 16:02 | 38.65030 | 116.09243 | 19908 ft | 355 kts | 73° |
| 2026-04-28 16:03 | 38.65361 | 116.12348 | 19596 ft | 355 kts | 82° |
| 2026-04-28 16:03 | 38.65418 | 116.15524 | 19286 ft | 360 kts | 86° |
| 2026-04-28 16:03 | 38.65356 | 116.18742 | 18987 ft | 357 kts | 88° |
| 2026-04-28 16:03 | 38.65255 | 116.21858 | 18685 ft | 354 kts | 88° |
| 2026-04-28 16:04 | 38.65144 | 116.24979 | 18378 ft | 349 kts | 88° |
| 2026-04-28 16:04 | 38.65042 | 116.28110 | 18073 ft | 352 kts | 88° |
| 2026-04-28 16:04 | 38.64951 | 116.31222 | 17766 ft | 350 kts | 87° |
| 2026-04-28 16:04 | 38.64894 | 116.34294 | 17462 ft | 346 kts | 85° |
| 2026-04-28 16:05 | 38.65006 | 116.37353 | 17158 ft | 344 kts | 79° |
| 2026-04-28 16:05 | 38.65392 | 116.40329 | 16853 ft | 340 kts | 73° |
| 2026-04-28 16:05 | 38.65979 | 116.43251 | 16545 ft | 337 kts | 70° |
| 2026-04-28 16:05 | 38.66650 | 116.46090 | 16243 ft | 334 kts | 69° |
| 2026-04-28 16:06 | 38.67348 | 116.48905 | 15939 ft | 333 kts | 69° |
| 2026-04-28 16:06 | 38.68043 | 116.51725 | 15627 ft | 332 kts | 69° |
| 2026-04-28 16:06 | 38.68716 | 116.54506 | 15323 ft | 329 kts | 69° |
| 2026-04-28 16:06 | 38.69382 | 116.57295 | 15019 ft | 329 kts | 70° |
| 2026-04-28 16:07 | 38.70042 | 116.60090 | 14715 ft | 328 kts | 69° |
| 2026-04-28 16:07 | 38.70691 | 116.62869 | 14409 ft | 325 kts | 69° |
| 2026-04-28 16:07 | 38.71973 | 116.68407 | 13800 ft | 325 kts | 71° |
| 2026-04-28 16:08 | 38.72607 | 116.71169 | 13502 ft | 323 kts | 70° |
| 2026-04-28 16:08 | 38.73241 | 116.73932 | 13199 ft | 322 kts | 70° |
| 2026-04-28 16:08 | 38.73864 | 116.76643 | 12892 ft | 318 kts | 70° |
| 2026-04-28 16:09 | 38.75115 | 116.82095 | 12278 ft | 316 kts | 70° |
| 2026-04-28 16:09 | 38.75734 | 116.84796 | 11975 ft | 314 kts | 70° |
| 2026-04-28 16:09 | 38.76344 | 116.87457 | 11665 ft | 309 kts | 70° |
| 2026-04-28 16:10 | 38.77521 | 116.92612 | 11052 ft | 295 kts | 70° |
| 2026-04-28 16:10 | 38.78088 | 116.95094 | 10750 ft | 289 kts | 69° |
| 2026-04-28 16:10 | 38.79119 | 116.99952 | 10138 ft | 281 kts | 76° |
| 2026-04-28 16:11 | 38.78473 | 117.04886 | 9533 ft | 288 kts | 109° |
| 2026-04-28 16:11 | 38.76864 | 117.09533 | 8918 ft | 287 kts | 109° |
| 2026-04-28 16:12 | 38.75319 | 117.14214 | 8343 ft | 285 kts | 108° |
| 2026-04-28 16:12 | 38.74568 | 117.16541 | 8060 ft | 283 kts | 108° |
| 2026-04-28 16:13 | 38.73455 | 117.21279 | 7494 ft | 274 kts | 86° |
| 2026-04-28 16:13 | 38.73732 | 117.23646 | 7218 ft | 268 kts | 67° |
| 2026-04-28 16:13 | 38.75285 | 117.27903 | 6709 ft | 264 kts | 60° |
| 2026-04-28 16:14 | 38.76896 | 117.32083 | 6203 ft | 263 kts | 60° |
| 2026-04-28 16:14 | 38.78519 | 117.36289 | 5694 ft | 263 kts | 57° |
| 2026-04-28 16:15 | 38.81148 | 117.39217 | 5189 ft | 256 kts | 16° |
| 2026-04-28 16:15 | 38.82889 | 117.39606 | 5011 ft | 252 kts | 1° |
| 2026-04-28 16:15 | 38.84639 | 117.39453 | 4948 ft | 254 kts | 346° |
| 2026-04-28 16:16 | 38.87873 | 117.37593 | 4825 ft | 252 kts | 333° |
| 2026-04-28 16:16 | 38.89428 | 117.36555 | 4765 ft | 255 kts | 333° |
| 2026-04-28 16:17 | 38.92598 | 117.34543 | 4642 ft | 255 kts | 334° |
| 2026-04-28 16:17 | 38.94193 | 117.33553 | 4575 ft | 253 kts | 334° |
| 2026-04-28 16:17 | 38.95785 | 117.32564 | 4513 ft | 253 kts | 334° |
| 2026-04-28 16:17 | 38.97364 | 117.31582 | 4452 ft | 252 kts | 334° |
| 2026-04-28 16:18 | 38.98957 | 117.30590 | 4390 ft | 253 kts | 334° |
| 2026-04-28 16:18 | 39.00534 | 117.29600 | 4332 ft | 253 kts | 334° |
| 2026-04-28 16:18 | 39.02105 | 117.28601 | 4268 ft | 254 kts | 334° |
| 2026-04-28 16:18 | 39.03692 | 117.27589 | 4204 ft | 254 kts | 334° |
| 2026-04-28 16:19 | 39.05285 | 117.26572 | 4140 ft | 253 kts | 334° |
| 2026-04-28 16:19 | 39.06845 | 117.25577 | 4079 ft | 252 kts | 334° |
| 2026-04-28 16:19 | 39.08435 | 117.24565 | 4018 ft | 253 kts | 334° |
| 2026-04-28 16:19 | 39.09997 | 117.23571 | 3917 ft | 254 kts | 334° |
| 2026-04-28 16:20 | 39.11560 | 117.22575 | 3882 ft | 242 kts | 334° |
| 2026-04-28 16:20 | 39.13045 | 117.21626 | 3761 ft | 233 kts | 333° |
| 2026-04-28 16:20 | 39.14470 | 117.20714 | 3658 ft | 224 kts | 333° |
| 2026-04-28 16:20 | 39.15836 | 117.19839 | 3558 ft | 215 kts | 333° |
| 2026-04-28 16:21 | 39.17170 | 117.18984 | 3453 ft | 207 kts | 333° |
| 2026-04-28 16:21 | 39.18436 | 117.18173 | 3354 ft | 204 kts | 333° |
| 2026-04-28 16:21 | 39.19714 | 117.17355 | 3257 ft | 206 kts | 333° |
| 2026-04-28 16:21 | 39.21021 | 117.16620 | 3150 ft | 204 kts | 343° |
| 2026-04-28 16:22 | 39.22428 | 117.16563 | 2944 ft | 206 kts | 16° |
| 2026-04-28 16:22 | 39.23626 | 117.17545 | 2751 ft | 206 kts | 46° |
| 2026-04-28 16:22 | 39.24424 | 117.19071 | 2576 ft | 203 kts | 60° |
| 2026-04-28 16:22 | 39.25026 | 117.20682 | 2415 ft | 198 kts | 62° |
| 2026-04-28 16:23 | 39.25607 | 117.22267 | 2260 ft | 193 kts | 62° |
| 2026-04-28 16:23 | 39.26128 | 117.23815 | 2114 ft | 188 kts | 70° |
| 2026-04-28 16:23 | 39.26160 | 117.25457 | 1978 ft | 184 kts | 112° |
| 2026-04-28 16:23 | 39.25349 | 117.26613 | 1999 ft | 175 kts | 152° |
| 2026-04-28 16:24 | 39.24253 | 117.27309 | 1990 ft | 174 kts | 153° |
| 2026-04-28 16:24 | 39.23188 | 117.28033 | 1994 ft | 172 kts | 154° |
| 2026-04-28 16:24 | 39.22109 | 117.28713 | 1887 ft | 169 kts | 155° |
| 2026-04-28 16:24 | 39.21079 | 117.29336 | 1683 ft | 157 kts | 156° |
| 2026-04-28 16:25 | 39.20100 | 117.29934 | 1450 ft | 154 kts | 155° |
| 2026-04-28 16:25 | 39.19147 | 117.30521 | 1240 ft | 151 kts | 155° |
| 2026-04-28 16:25 | 39.18208 | 117.31096 | 1032 ft | 149 kts | 155° |
| 2026-04-28 16:25 | 39.17273 | 117.31662 | 835 ft | 147 kts | 155° |
| 2026-04-28 16:26 | 39.16336 | 117.32234 | 636 ft | 147 kts | 155° |
| 2026-04-28 16:26 | 39.15411 | 117.32796 | 432 ft | 147 kts | 155° |
| 2026-04-28 16:26 | 39.14495 | 117.33366 | 233 ft | 145 kts | 154° |
| 2026-04-28 16:26 | 39.13587 | 117.33919 | 39 ft | 142 kts | 155° |
| 2026-04-28 16:27 | 39.12745 | 117.34418 | 18 ft | 115 kts | 152° |
| 2026-04-28 16:27 | 39.12260 | 117.34725 | 25 ft | 44 kts | 155° |
| 2026-04-28 16:27 | 39.11856 | 117.35007 | 18 ft | 33 kts | 137° |
| 2026-04-28 16:28 | 39.11763 | 117.35159 | 16 ft | 9 kts | 124° |
| 2026-04-28 16:28 | 39.11743 | 117.35239 | 16 ft | 9 kts | 70° |
| 2026-04-28 16:28 | 39.11798 | 117.35266 | 17 ft | 9 kts | 348° |
| 2026-04-28 16:28 | 39.11854 | 117.35232 | 18 ft | 8 kts | 330° |
| 2026-04-28 16:29 | 39.11983 | 117.35149 | 19 ft | 12 kts | 333° |
| 2026-04-28 16:29 | 39.12103 | 117.35133 | 20 ft | 7 kts | 57° |
| 2026-04-28 16:30 | 39.12127 | 117.35194 | 20 ft | 7 kts | 64° |
| 2026-04-28 16:30 | 39.12151 | 117.35260 | 20 ft | 8 kts | 64° |
| 2026-04-28 16:30 | 39.12180 | 117.35336 | 18 ft | 10 kts | 64° |
| 2026-04-28 16:30 | 39.12214 | 117.35428 | 16 ft | 11 kts | 63° |
| 2026-04-28 16:31 | 39.12245 | 117.35513 | 16 ft | 9 kts | 64° |
| 2026-04-28 16:31 | 39.12283 | 117.35569 | 15 ft | 8 kts | 9° |
| 2026-04-28 16:31 | 39.12335 | 117.35555 | 15 ft | 7 kts | 350° |
| 2026-04-28 16:31 | 39.12388 | 117.35551 | 15 ft | 7 kts | 2° |
| 2026-04-28 16:32 | 39.12442 | 117.35556 | 16 ft | 7 kts | 4° |
| 2026-04-28 16:32 | 39.12539 | 117.35564 | 17 ft | 7 kts | 2° |
| 2026-04-28 16:32 | 39.12592 | 117.35568 | 17 ft | 8 kts | 3° |
| 2026-04-28 16:33 | 39.12648 | 117.35548 | 18 ft | 8 kts | 318° |
| 2026-04-28 16:33 | 39.12682 | 117.35513 | 18 ft | 9 kts | 336° |
| 2026-04-28 16:33 | 39.12754 | 117.35576 | 17 ft | 9 kts | 55° |
| 2026-04-28 16:33 | 39.12774 | 117.35619 | 18 ft | 2 kts | 62° |
| 2026-04-28 16:34 | 39.12778 | 117.35629 | 18 ft | 0 kts | 62° |
| 2026-04-28 16:34 | 39.12779 | 117.35631 | 18 ft | 0 kts | 63° |
| 2026-04-28 16:34 | 39.12780 | 117.35635 | 18 ft | 0 kts | 62° |
| 2026-04-28 16:34 | 39.12783 | 117.35642 | 18 ft | 0 kts | 63° |